Time;durP1;ratioP1;P1;durP2;ratioP2;P2;SDS_P1;SDS_P2;PMS_P1;PMS_P2;Temp;Humidity;BMP_temperature;BMP_pressure;BME280_temperature;BME280_humidity;BME280_pressure;Samples;Min_cycle;Max_cycle;Signal;HPM_P1;HPM_P2
2023/04/19 00:01:50;;;;;;;2.70;1.87;;;;;9.10;96444.00;;;;5033908;28;20322;-65
2023/04/19 00:04:20;;;;;;;1.67;1.57;;;;;9.10;96441.00;;;;5033568;28;20205;-65
2023/04/19 00:06:47;;;;;;;1.10;1.10;;;;;9.00;96434.00;;;;5033436;28;20551;-65
2023/04/19 00:09:14;;;;;;;2.23;2.03;;;;;9.00;96439.00;;;;5033479;28;20239;-65
2023/04/19 00:11:42;;;;;;;1.63;1.53;;;;;9.00;96441.00;;;;5034387;28;20205;-64
2023/04/19 00:14:09;;;;;;;1.77;1.67;;;;;9.10;96437.00;;;;5015697;28;20216;-64
2023/04/19 00:16:37;;;;;;;1.83;1.73;;;;;9.00;96442.00;;;;5033282;28;20189;-65
2023/04/19 00:19:04;;;;;;;2.23;2.07;;;;;9.10;96443.00;;;;5033285;28;20305;-65
2023/04/19 00:21:33;;;;;;;2.43;2.23;;;;;9.10;96431.00;;;;5033292;28;20692;-65
2023/04/19 00:24:02;;;;;;;5.70;1.93;;;;;9.00;96437.00;;;;5033520;28;20211;-65
2023/04/19 00:26:29;;;;;;;1.03;1.03;;;;;9.00;96438.00;;;;5032975;28;20227;-65
2023/04/19 00:28:56;;;;;;;1.40;1.33;;;;;9.00;96432.00;;;;5033981;28;20215;-65
2023/04/19 00:31:24;;;;;;;2.13;2.03;;;;;9.00;96432.00;;;;5033650;28;20246;-66
2023/04/19 00:33:51;;;;;;;1.50;1.40;;;;;9.00;96428.00;;;;5033246;28;20251;-64
2023/04/19 00:36:18;;;;;;;2.30;1.97;;;;;8.90;96434.00;;;;5032224;28;20254;-64
2023/04/19 00:38:47;;;;;;;3.40;2.60;;;;;8.90;96436.00;;;;5033281;28;20307;-64
2023/04/19 00:41:14;;;;;;;2.50;2.30;;;;;8.90;96426.00;;;;5032989;28;20251;-67
2023/04/19 00:43:42;;;;;;;1.87;1.77;;;;;8.90;96420.00;;;;5033048;28;20648;-64
2023/04/19 00:46:09;;;;;;;2.77;2.50;;;;;8.90;96425.00;;;;5032893;28;20220;-64
2023/04/19 00:48:37;;;;;;;2.03;1.93;;;;;9.00;96420.00;;;;5032853;28;20217;-64
2023/04/19 00:51:04;;;;;;;1.83;1.73;;;;;8.90;96417.00;;;;5032893;28;20247;-64
2023/04/19 00:53:32;;;;;;;1.87;1.70;;;;;8.90;96426.00;;;;5033109;28;20215;-64
2023/04/19 00:56:04;;;;;;;3.10;1.97;;;;;8.80;96407.00;;;;5015331;28;20284;-65
2023/04/19 00:58:32;;;;;;;2.50;2.30;;;;;8.80;96415.00;;;;5033162;28;20224;-65
2023/04/19 01:01:00;;;;;;;1.03;0.97;;;;;8.80;96419.00;;;;5032829;28;20197;-65
2023/04/19 01:03:28;;;;;;;2.57;1.97;;;;;8.70;96411.00;;;;5032884;28;20287;-66
2023/04/19 01:05:56;;;;;;;6.30;2.43;;;;;8.70;96411.00;;;;5033023;28;20291;-66
2023/04/19 01:08:24;;;;;;;2.43;2.23;;;;;8.70;96411.00;;;;5014933;28;20264;-66
2023/04/19 01:10:51;;;;;;;1.43;1.33;;;;;8.70;96405.00;;;;5032768;28;20193;-66
2023/04/19 01:13:20;;;;;;;2.00;1.80;;;;;8.60;96413.00;;;;5032707;28;20189;-66
2023/04/19 01:15:47;;;;;;;2.87;2.67;;;;;8.70;96403.00;;;;5032689;28;20220;-66
2023/04/19 01:18:14;;;;;;;1.63;1.53;;;;;8.70;96402.00;;;;5033100;28;20266;-64
2023/04/19 01:20:42;;;;;;;2.73;2.43;;;;;8.70;96400.00;;;;5032584;28;20610;-65
2023/04/19 01:23:11;;;;;;;1.70;1.60;;;;;8.70;96401.00;;;;5033126;28;20660;-65
2023/04/19 01:25:38;;;;;;;3.63;2.30;;;;;8.60;96400.00;;;;5032767;28;20275;-64
2023/04/19 01:28:06;;;;;;;2.03;1.93;;;;;8.60;96394.00;;;;5032529;28;20217;-65
2023/04/19 01:30:34;;;;;;;1.50;1.47;;;;;8.50;96396.00;;;;5014828;28;20192;-64
2023/04/19 01:33:01;;;;;;;13.00;1.87;;;;;8.60;96398.00;;;;5032995;28;20220;-65
2023/04/19 01:35:28;;;;;;;3.43;3.13;;;;;8.50;96392.00;;;;5032473;28;20193;-64
2023/04/19 01:37:56;;;;;;;2.63;2.50;;;;;8.50;96389.00;;;;5032662;28;20576;-64
2023/04/19 01:40:26;;;;;;;1.73;1.63;;;;;8.50;96391.00;;;;5032428;28;20665;-65
2023/04/19 01:42:53;;;;;;;2.20;2.07;;;;;8.50;96394.00;;;;5032482;28;20211;-64
2023/04/19 01:45:21;;;;;;;2.83;2.50;;;;;8.40;96388.00;;;;5032283;28;20217;-64
2023/04/19 01:47:48;;;;;;;5.47;2.50;;;;;8.30;96383.00;;;;5035536;28;20617;-64
2023/04/19 01:50:16;;;;;;;1.93;1.83;;;;;8.30;96385.00;;;;5036286;28;20540;-64
2023/04/19 01:52:43;;;;;;;6.00;3.10;;;;;8.30;96374.00;;;;5035972;28;20664;-64
2023/04/19 01:55:10;;;;;;;3.13;2.33;;;;;8.30;96385.00;;;;5018210;28;20196;-64
2023/04/19 01:57:39;;;;;;;3.33;2.27;;;;;8.40;96373.00;;;;5036006;28;20220;-65
2023/04/19 02:00:08;;;;;;;3.90;2.97;;;;;8.40;96379.00;;;;5018073;28;20678;-64
2023/04/19 02:02:37;;;;;;;2.50;2.30;;;;;8.50;96382.00;;;;5035800;28;20203;-64
2023/04/19 02:05:05;;;;;;;2.43;2.33;;;;;8.50;96370.00;;;;5035786;28;20228;-65
2023/04/19 02:07:32;;;;;;;2.43;2.33;;;;;8.50;96360.00;;;;5035870;28;20227;-65
2023/04/19 02:10:00;;;;;;;2.43;2.23;;;;;8.40;96353.00;;;;5035999;28;20609;-65
2023/04/19 02:12:28;;;;;;;3.23;2.83;;;;;8.30;96361.00;;;;5036185;28;20203;-65
2023/04/19 02:14:58;;;;;;;1.77;1.67;;;;;8.30;96361.00;;;;5036180;28;20259;-65
2023/04/19 02:17:25;;;;;;;1.93;1.83;;;;;8.30;96356.00;;;;5035795;28;20575;-65
2023/04/19 02:19:53;;;;;;;1.87;1.77;;;;;8.30;96351.00;;;;5035560;28;20201;-65
2023/04/19 02:22:21;;;;;;;2.43;2.23;;;;;8.30;96355.00;;;;5035742;28;20196;-65
2023/04/19 02:24:49;;;;;;;1.90;1.80;;;;;8.30;96352.00;;;;5035526;28;20193;-65
2023/04/19 02:27:17;;;;;;;4.03;1.93;;;;;8.30;96355.00;;;;5035575;28;20224;-65
2023/04/19 02:29:45;;;;;;;3.77;2.90;;;;;8.30;96351.00;;;;5017692;28;20204;-65
2023/04/19 02:32:14;;;;;;;1.40;1.20;;;;;8.30;96348.00;;;;5017606;28;20564;-65
2023/04/19 02:34:41;;;;;;;2.40;2.30;;;;;8.30;96344.00;;;;5035325;28;20310;-65
2023/04/19 02:37:09;;;;;;;1.83;1.73;;;;;8.20;96357.00;;;;5035238;28;20291;-65
2023/04/19 02:39:36;;;;;;;2.27;2.07;;;;;8.20;96341.00;;;;5035268;28;20309;-66
2023/04/19 02:42:05;;;;;;;1.63;1.53;;;;;8.20;96345.00;;;;5035082;28;20197;-65
2023/04/19 02:44:32;;;;;;;3.27;3.07;;;;;8.20;96339.00;;;;5035054;28;20189;-64
2023/04/19 02:47:00;;;;;;;3.63;3.23;;;;;8.20;96345.00;;;;5034865;28;20229;-65
2023/04/19 02:49:31;;;;;;;2.17;2.07;;;;;8.20;96343.00;;;;5017161;28;20232;-64
2023/04/19 02:51:59;;;;;;;2.43;2.33;;;;;8.20;96340.00;;;;5017315;28;20648;-65
2023/04/19 02:54:26;;;;;;;2.07;1.97;;;;;8.20;96330.00;;;;5035206;28;20192;-64
2023/04/19 02:56:53;;;;;;;3.03;2.30;;;;;8.10;96332.00;;;;5034731;28;20282;-65
2023/04/19 02:59:21;;;;;;;1.30;1.20;;;;;8.10;96333.00;;;;5033948;28;20200;-64
2023/04/19 03:01:48;;;;;;;3.57;2.87;;;;;8.10;96334.00;;;;5034954;28;20192;-64
2023/04/19 03:04:16;;;;;;;2.63;2.50;;;;;8.10;96332.00;;;;5034722;28;20193;-64
2023/04/19 03:06:44;;;;;;;3.43;3.13;;;;;8.20;96337.00;;;;5034639;28;20315;-65
2023/04/19 03:09:12;;;;;;;3.13;2.17;;;;;8.10;96341.00;;;;5034760;28;20173;-64
2023/04/19 03:11:39;;;;;;;1.60;1.50;;;;;8.10;96333.00;;;;5034742;28;20201;-64
2023/04/19 03:14:07;;;;;;;5.03;2.57;;;;;8.10;96331.00;;;;5035039;28;20254;-64
2023/04/19 03:16:34;;;;;;;3.13;2.87;;;;;8.00;96325.00;;;;5035107;28;20583;-64
2023/04/19 03:19:01;;;;;;;2.20;2.10;;;;;8.10;96328.00;;;;5034740;28;20196;-64
2023/04/19 03:21:29;;;;;;;3.63;2.93;;;;;8.10;96325.00;;;;5034323;28;20200;-64
2023/04/19 03:23:58;;;;;;;8.10;2.93;;;;;8.10;96329.00;;;;5034891;28;20207;-64
2023/04/19 03:26:25;;;;;;;2.03;1.93;;;;;8.10;96331.00;;;;5016999;28;20228;-64
2023/04/19 03:28:53;;;;;;;2.40;2.30;;;;;8.10;96328.00;;;;5035443;28;20583;-64
2023/04/19 03:31:20;;;;;;;1.97;1.87;;;;;8.10;96323.00;;;;5034066;28;20247;-65
2023/04/19 03:33:47;;;;;;;2.53;2.33;;;;;8.20;96325.00;;;;5034082;28;20212;-64
2023/04/19 03:36:15;;;;;;;2.20;2.00;;;;;8.10;96322.00;;;;5034192;28;20197;-65
2023/04/19 03:38:43;;;;;;;2.07;1.97;;;;;8.10;96324.00;;;;5034488;28;20290;-64
2023/04/19 03:41:20;;;;;;;3.30;3.10;;;;;8.10;96322.00;;;;5034237;28;20239;-65
2023/04/19 03:43:47;;;;;;;2.27;2.17;;;;;8.10;96319.00;;;;5034506;28;20247;-64
2023/04/19 03:46:15;;;;;;;2.40;2.20;;;;;8.10;96317.00;;;;5033824;28;20216;-64
2023/04/19 03:48:42;;;;;;;1.83;1.73;;;;;8.10;96310.00;;;;5033819;28;20213;-64
2023/04/19 03:51:10;;;;;;;4.67;3.07;;;;;8.30;96304.00;;;;5016561;28;20243;-65
2023/04/19 03:53:37;;;;;;;3.23;3.03;;;;;8.10;96310.00;;;;5034027;28;20529;-64
2023/04/19 03:56:05;;;;;;;1.73;1.63;;;;;8.10;96315.00;;;;5033698;28;20192;-65
2023/04/19 03:58:34;;;;;;;2.87;2.67;;;;;7.90;96311.00;;;;5034145;28;20217;-64
2023/04/19 04:01:01;;;;;;;4.30;3.90;;;;;8.00;96302.00;;;;5033549;28;20196;-64
2023/04/19 04:03:29;;;;;;;2.13;2.03;;;;;8.00;96314.00;;;;5033503;28;20192;-65
2023/04/19 04:05:56;;;;;;;1.63;1.53;;;;;8.00;96307.00;;;;5034055;28;20216;-64
2023/04/19 04:08:23;;;;;;;4.03;3.50;;;;;8.00;96304.00;;;;5033311;28;20235;-65
2023/04/19 04:10:51;;;;;;;7.40;3.53;;;;;8.00;96313.00;;;;5033164;28;20197;-64
2023/04/19 04:13:18;;;;;;;2.43;2.33;;;;;8.00;96310.00;;;;5033645;28;20258;-64
2023/04/19 04:15:47;;;;;;;2.87;2.67;;;;;8.00;96308.00;;;;5033565;28;20204;-65
2023/04/19 04:18:15;;;;;;;2.77;2.60;;;;;7.90;96314.00;;;;5015523;28;20703;-64
2023/04/19 04:20:44;;;;;;;2.10;2.00;;;;;7.90;96310.00;;;;5033232;28;20219;-65
2023/04/19 04:23:11;;;;;;;2.67;2.47;;;;;8.00;96314.00;;;;5016270;28;20250;-64
2023/04/19 04:25:38;;;;;;;2.40;2.30;;;;;8.00;96317.00;;;;5033235;28;20629;-64
2023/04/19 04:28:06;;;;;;;3.97;2.37;;;;;8.00;96314.00;;;;5033256;28;20225;-64
2023/04/19 04:30:33;;;;;;;2.93;2.57;;;;;8.10;96310.00;;;;5033104;28;20196;-64
2023/04/19 04:33:02;;;;;;;5.33;2.67;;;;;8.00;96318.00;;;;5033335;28;20350;-64
2023/04/19 04:35:29;;;;;;;1.67;1.57;;;;;8.00;96321.00;;;;5033140;28;20246;-65
2023/04/19 04:37:58;;;;;;;1.90;1.77;;;;;8.00;96323.00;;;;5033107;28;20212;-65
2023/04/19 04:40:25;;;;;;;3.00;2.80;;;;;8.20;96316.00;;;;5033403;28;20239;-65
2023/04/19 04:42:53;;;;;;;3.00;2.73;;;;;8.00;96320.00;;;;5033020;28;20197;-64
2023/04/19 04:45:21;;;;;;;2.23;2.03;;;;;8.10;96320.00;;;;5033238;28;20197;-64
2023/04/19 04:47:48;;;;;;;2.43;2.33;;;;;8.10;96317.00;;;;5015128;28;20692;-64
2023/04/19 04:50:17;;;;;;;4.40;2.90;;;;;8.00;96311.00;;;;5032988;28;20215;-64
2023/04/19 04:52:44;;;;;;;3.87;3.57;;;;;8.10;96311.00;;;;5015291;28;20232;-64
2023/04/19 04:55:12;;;;;;;2.23;2.13;;;;;7.90;96310.00;;;;5032862;28;20199;-64
2023/04/19 04:57:39;;;;;;;1.90;1.80;;;;;7.90;96317.00;;;;5032850;28;20212;-64
2023/04/19 05:00:08;;;;;;;4.80;4.13;;;;;7.90;96318.00;;;;5033154;28;20223;-64
2023/04/19 05:02:36;;;;;;;2.97;2.77;;;;;7.90;96319.00;;;;5032819;28;20287;-65
2023/04/19 05:05:03;;;;;;;7.60;3.40;;;;;8.00;96322.00;;;;5032818;28;20604;-65
2023/04/19 05:07:32;;;;;;;3.70;3.40;;;;;7.90;96316.00;;;;5032430;28;20232;-65
2023/04/19 05:09:59;;;;;;;3.60;3.30;;;;;8.00;96320.00;;;;5032826;28;20203;-65
2023/04/19 05:12:27;;;;;;;4.67;3.17;;;;;8.10;96313.00;;;;5032999;28;20526;-64
2023/04/19 05:14:54;;;;;;;3.80;3.53;;;;;8.10;96312.00;;;;5032688;28;20196;-64
2023/04/19 05:17:21;;;;;;;3.90;3.63;;;;;8.10;96314.00;;;;5032667;28;20209;-65
2023/04/19 05:19:49;;;;;;;3.33;3.13;;;;;8.20;96321.00;;;;5032648;28;20193;-64
2023/04/19 05:22:17;;;;;;;1.67;1.57;;;;;8.30;96316.00;;;;5035168;28;20193;-64
2023/04/19 05:24:46;;;;;;;2.97;2.77;;;;;8.40;96312.00;;;;5036979;28;20193;-65
2023/04/19 05:27:13;;;;;;;2.63;2.53;;;;;8.50;96312.00;;;;5036317;28;20244;-65
2023/04/19 05:29:40;;;;;;;2.87;2.53;;;;;8.60;96321.00;;;;5036686;28;20200;-65
2023/04/19 05:32:08;;;;;;;3.53;3.23;;;;;8.70;96322.00;;;;5036964;28;20200;-64
2023/04/19 05:34:36;;;;;;;3.40;3.10;;;;;8.70;96315.00;;;;5036333;28;20193;-64
2023/04/19 05:37:05;;;;;;;3.43;3.23;;;;;8.80;96317.00;;;;5036251;28;20576;-65
2023/04/19 05:39:32;;;;;;;2.70;2.50;;;;;8.70;96338.00;;;;5036774;28;20201;-65
2023/04/19 05:42:01;;;;;;;3.63;3.33;;;;;8.70;96327.00;;;;5036336;28;20197;-64
2023/04/19 05:44:29;;;;;;;2.43;2.33;;;;;8.50;96328.00;;;;5036404;28;20298;-65
2023/04/19 05:46:56;;;;;;;2.03;1.93;;;;;8.50;96334.00;;;;5036083;28;20220;-65
2023/04/19 05:49:23;;;;;;;3.07;2.87;;;;;8.50;96329.00;;;;5036454;28;20532;-65
2023/04/19 05:51:51;;;;;;;2.50;2.40;;;;;8.50;96332.00;;;;5036132;28;20218;-65
2023/04/19 05:54:19;;;;;;;2.50;2.10;;;;;8.40;96331.00;;;;5036494;28;20243;-65
2023/04/19 05:56:46;;;;;;;4.90;3.00;;;;;8.40;96333.00;;;;5018221;28;20200;-65
2023/04/19 05:59:15;;;;;;;2.77;2.10;;;;;8.40;96331.00;;;;5036209;28;20209;-64
2023/04/19 06:01:42;;;;;;;3.13;2.93;;;;;8.30;96334.00;;;;5035844;28;20197;-65
2023/04/19 06:04:10;;;;;;;2.93;2.70;;;;;8.30;96338.00;;;;5036376;28;20247;-65
2023/04/19 06:06:38;;;;;;;3.23;2.10;;;;;8.40;96334.00;;;;5035550;28;20256;-64
2023/04/19 06:09:05;;;;;;;3.00;2.80;;;;;8.50;96340.00;;;;5035786;28;20225;-64
2023/04/19 06:11:33;;;;;;;2.57;2.47;;;;;8.40;96346.00;;;;5039031;28;20196;-63
2023/04/19 06:14:00;;;;;;;2.80;2.60;;;;;8.40;96345.00;;;;5053253;28;20672;-60
2023/04/19 06:16:29;;;;;;;2.97;2.47;;;;;8.40;96345.00;;;;5049091;28;20207;-62
2023/04/19 06:18:57;;;;;;;2.43;2.23;;;;;8.50;96346.00;;;;5053920;28;20203;-60
2023/04/19 06:21:24;;;;;;;2.83;2.63;;;;;8.50;96348.00;;;;5053931;28;20192;-60
2023/04/19 06:23:51;;;;;;;2.57;2.07;;;;;8.50;96347.00;;;;5043734;28;20204;-60
2023/04/19 06:26:19;;;;;;;2.53;2.33;;;;;8.60;96350.00;;;;5041811;28;20660;-61
2023/04/19 06:28:46;;;;;;;2.73;2.53;;;;;8.60;96346.00;;;;5044396;28;20216;-64
2023/04/19 06:31:14;;;;;;;1.50;1.47;;;;;8.60;96344.00;;;;5046699;28;20200;-64
2023/04/19 06:33:42;;;;;;;2.13;1.97;;;;;8.70;96347.00;;;;5033552;28;20692;-64
2023/04/19 06:36:10;;;;;;;4.27;2.40;;;;;8.70;96341.00;;;;5033630;28;20192;-64
2023/04/19 06:38:38;;;;;;;1.80;1.70;;;;;8.70;96341.00;;;;5033564;28;20213;-64
2023/04/19 06:41:06;;;;;;;2.47;2.27;;;;;8.80;96341.00;;;;5033613;28;20204;-64
2023/04/19 06:43:34;;;;;;;3.47;2.27;;;;;8.80;96334.00;;;;5033059;28;20201;-64
2023/04/19 06:46:03;;;;;;;1.67;1.57;;;;;9.00;96339.00;;;;5053498;28;20211;-64
2023/04/19 06:48:30;;;;;;;2.63;2.43;;;;;9.00;96335.00;;;;5053301;28;20232;-64
2023/04/19 06:50:59;;;;;;;2.93;2.73;;;;;9.10;96336.00;;;;5053607;28;20639;-64
2023/04/19 06:53:27;;;;;;;3.87;3.53;;;;;9.20;96327.00;;;;5053287;28;20534;-64
2023/04/19 06:56:00;;;;;;;3.17;2.80;;;;;9.30;96332.00;;;;5053276;28;20204;-64
2023/04/19 06:58:27;;;;;;;3.77;3.47;;;;;9.50;96334.00;;;;5053110;28;20231;-64
2023/04/19 07:00:55;;;;;;;1.77;1.67;;;;;9.70;96332.00;;;;5053086;28;20199;-64
2023/04/19 07:03:23;;;;;;;2.70;2.57;;;;;9.80;96330.00;;;;5035141;28;20196;-64
2023/04/19 07:05:51;;;;;;;1.93;1.83;;;;;9.90;96331.00;;;;5051821;28;20200;-64
2023/04/19 07:08:20;;;;;;;3.67;1.87;;;;;10.00;96330.00;;;;5052699;28;20262;-64
2023/04/19 07:10:47;;;;;;;2.33;2.17;;;;;10.00;96326.00;;;;5052573;28;20261;-64
2023/04/19 07:13:15;;;;;;;3.07;2.80;;;;;10.10;96327.00;;;;5052850;28;20200;-64
2023/04/19 07:15:42;;;;;;;1.80;1.70;;;;;10.20;96326.00;;;;5052805;28;20200;-64
2023/04/19 07:18:10;;;;;;;2.50;2.37;;;;;10.00;96329.00;;;;5052962;28;20212;-64
2023/04/19 07:20:38;;;;;;;2.57;2.37;;;;;10.00;96331.00;;;;5052650;28;20231;-64
2023/04/19 07:23:05;;;;;;;2.40;2.07;;;;;10.20;96330.00;;;;5052681;28;20278;-64
2023/04/19 07:25:34;;;;;;;2.23;2.03;;;;;10.20;96324.00;;;;5034730;28;20214;-64
2023/04/19 07:28:01;;;;;;;2.63;2.43;;;;;10.10;96329.00;;;;5052460;28;20227;-64
2023/04/19 07:30:29;;;;;;;2.90;2.30;;;;;10.30;96320.00;;;;5052790;28;20199;-64
2023/04/19 07:32:56;;;;;;;3.23;2.33;;;;;10.40;96321.00;;;;5034616;28;20214;-64
2023/04/19 07:35:24;;;;;;;3.40;2.30;;;;;10.60;96320.00;;;;5052384;28;20250;-65
2023/04/19 07:37:51;;;;;;;2.17;2.07;;;;;10.70;96318.00;;;;5034550;28;20691;-64
2023/04/19 07:40:18;;;;;;;2.40;2.20;;;;;10.60;96319.00;;;;5052486;28;20227;-64
2023/04/19 07:42:47;;;;;;;3.83;2.37;;;;;10.60;96312.00;;;;5034474;28;20679;-64
2023/04/19 07:45:15;;;;;;;3.00;2.80;;;;;10.50;96314.00;;;;5052050;28;20226;-64
2023/04/19 07:47:42;;;;;;;2.60;2.40;;;;;10.60;96309.00;;;;5052129;28;20227;-64
2023/04/19 07:50:11;;;;;;;2.10;1.57;;;;;11.00;96319.00;;;;5052481;28;20552;-64
2023/04/19 07:52:38;;;;;;;1.73;1.63;;;;;10.90;96309.00;;;;5052588;28;20215;-65
2023/04/19 07:55:07;;;;;;;4.40;2.10;;;;;11.00;96311.00;;;;5052831;28;20210;-65
2023/04/19 07:57:35;;;;;;;2.13;2.03;;;;;11.20;96310.00;;;;5052195;28;20211;-65
2023/04/19 08:00:05;;;;;;;3.03;2.73;;;;;11.20;96301.00;;;;5034241;28;20208;-64
2023/04/19 08:02:32;;;;;;;1.30;1.30;;;;;11.30;96313.00;;;;5050867;28;20207;-65
2023/04/19 08:05:01;;;;;;;2.07;1.97;;;;;11.30;96305.00;;;;5033713;28;20557;-65
2023/04/19 08:07:28;;;;;;;6.93;2.13;;;;;11.30;96308.00;;;;5051583;28;20223;-65
2023/04/19 08:09:55;;;;;;;3.37;2.37;;;;;11.40;96313.00;;;;5034035;28;20686;-65
2023/04/19 08:12:23;;;;;;;2.03;1.93;;;;;11.70;96304.00;;;;5051998;28;20204;-64
2023/04/19 08:14:50;;;;;;;4.07;2.90;;;;;11.80;96295.00;;;;5051657;28;20199;-64
2023/04/19 08:17:20;;;;;;;3.97;2.83;;;;;11.90;96300.00;;;;5051664;28;20235;-64
2023/04/19 08:19:48;;;;;;;2.43;2.33;;;;;12.00;96294.00;;;;5051598;28;20192;-64
2023/04/19 08:22:16;;;;;;;2.97;2.50;;;;;12.10;96295.00;;;;5051553;28;20200;-64
2023/04/19 08:24:44;;;;;;;3.57;2.50;;;;;12.10;96299.00;;;;5051575;28;20223;-64
2023/04/19 08:27:12;;;;;;;2.30;2.20;;;;;12.00;96289.00;;;;5051416;28;20304;-64
2023/04/19 08:29:39;;;;;;;2.40;2.20;;;;;12.10;96291.00;;;;5033833;28;20210;-64
2023/04/19 08:32:07;;;;;;;2.77;2.50;;;;;12.20;96293.00;;;;5051698;28;20555;-64
2023/04/19 08:34:37;;;;;;;3.50;2.43;;;;;12.50;96292.00;;;;5033588;28;20627;-64
2023/04/19 08:37:06;;;;;;;1.63;1.53;;;;;12.60;96294.00;;;;5051618;28;20228;-64
2023/04/19 08:39:34;;;;;;;1.70;1.60;;;;;12.70;96289.00;;;;5051501;28;20287;-64
2023/04/19 08:42:05;;;;;;;1.20;1.20;;;;;12.50;96289.00;;;;5051323;28;20199;-64
2023/04/19 08:44:33;;;;;;;2.67;2.47;;;;;12.40;96286.00;;;;5051386;28;20213;-64
2023/04/19 08:47:01;;;;;;;2.60;1.63;;;;;12.20;96305.00;;;;5051295;28;20262;-64
2023/04/19 08:49:28;;;;;;;1.67;1.57;;;;;12.30;96298.00;;;;5051225;28;20238;-65
2023/04/19 08:51:58;;;;;;;2.10;2.00;;;;;12.20;96288.00;;;;5051222;28;20604;-64
2023/04/19 08:54:26;;;;;;;1.57;1.53;;;;;12.40;96289.00;;;;5051340;28;20195;-64
2023/04/19 08:56:54;;;;;;;1.67;1.57;;;;;12.60;96288.00;;;;5052978;28;20226;-64
2023/04/19 08:59:21;;;;;;;2.60;2.40;;;;;12.70;96281.00;;;;5055387;28;20192;-64
2023/04/19 09:01:49;;;;;;;1.93;1.83;;;;;13.00;96278.00;;;;5055356;28;20207;-64
2023/04/19 09:04:16;;;;;;;1.77;1.67;;;;;13.40;96272.00;;;;5055463;28;20287;-65
2023/04/19 09:06:43;;;;;;;2.03;1.93;;;;;13.40;96272.00;;;;5055192;28;20257;-65
2023/04/19 09:09:17;;;;;;;2.13;1.97;;;;;13.60;96276.00;;;;5037250;28;20699;-64
2023/04/19 09:11:44;;;;;;;1.67;1.57;;;;;13.50;96273.00;;;;5023889;28;20201;-64
2023/04/19 09:14:14;;;;;;;2.80;2.57;;;;;13.20;96280.00;;;;5017427;28;20204;-64
2023/04/19 09:16:41;;;;;;;3.20;2.90;;;;;13.20;96279.00;;;;5035241;28;20274;-64
2023/04/19 09:19:11;;;;;;;1.43;1.37;;;;;13.40;96269.00;;;;5035290;28;20196;-62
2023/04/19 09:21:39;;;;;;;1.67;1.57;;;;;13.30;96261.00;;;;5035202;28;20193;-63
2023/04/19 09:24:07;;;;;;;1.43;1.37;;;;;12.80;96263.00;;;;5034938;28;20201;-63
2023/04/19 09:26:36;;;;;;;2.57;2.37;;;;;12.90;96265.00;;;;5034848;28;20193;-65
2023/04/19 09:29:05;;;;;;;1.00;1.00;;;;;13.00;96269.00;;;;5017105;28;20568;-65
2023/04/19 09:31:34;;;;;;;1.43;1.43;;;;;13.10;96270.00;;;;5034841;28;20200;-64
2023/04/19 09:34:14;;;;;;;2.20;2.10;;;;;13.10;96262.00;;;;5033878;28;20200;-63
2023/04/19 09:36:41;;;;;;;1.90;1.80;;;;;13.50;96254.00;;;;5034792;28;20196;-63
2023/04/19 09:39:10;;;;;;;2.63;2.37;;;;;13.50;96248.00;;;;5033707;28;20204;-63
2023/04/19 09:41:51;;;;;;;1.77;1.67;;;;;13.60;96258.00;;;;5034274;28;20284;-63
2023/04/19 09:44:19;;;;;;;1.83;1.73;;;;;13.90;96255.00;;;;5034505;28;20189;-64
2023/04/19 09:46:48;;;;;;;4.67;2.77;;;;;14.10;96255.00;;;;5034736;28;20201;-64
2023/04/19 09:49:19;;;;;;;1.43;1.33;;;;;14.10;96234.00;;;;5034682;28;20213;-64
2023/04/19 09:51:48;;;;;;;1.63;1.53;;;;;14.40;96247.00;;;;5034560;28;20311;-64
2023/04/19 09:54:17;;;;;;;2.73;1.77;;;;;14.50;96237.00;;;;5034477;28;20200;-64
2023/04/19 09:56:46;;;;;;;2.50;2.00;;;;;14.80;96239.00;;;;5033278;28;20201;-64
2023/04/19 09:59:14;;;;;;;1.20;1.20;;;;;14.40;96242.00;;;;5034582;28;20592;-64
2023/04/19 10:01:46;;;;;;;2.83;2.60;;;;;14.50;96231.00;;;;5033919;28;20247;-64
2023/04/19 10:04:20;;;;;;;2.73;2.07;;;;;14.30;96236.00;;;;5034302;28;20200;-64
2023/04/19 10:06:49;;;;;;;1.63;1.53;;;;;14.40;96235.00;;;;5033763;28;20235;-64
2023/04/19 10:09:17;;;;;;;2.00;1.87;;;;;14.30;96236.00;;;;5034115;28;20244;-64
2023/04/19 10:11:49;;;;;;;4.10;2.80;;;;;14.20;96235.00;;;;5034181;28;20189;-64
2023/04/19 10:14:19;;;;;;;1.30;1.27;;;;;13.90;96246.00;;;;5034073;28;20235;-64
2023/04/19 10:16:47;;;;;;;1.30;1.30;;;;;13.90;96238.00;;;;5033833;28;20195;-64
2023/04/19 10:19:18;;;;;;;1.90;1.70;;;;;13.90;96233.00;;;;5034023;28;20672;-64
2023/04/19 10:21:47;;;;;;;2.50;2.30;;;;;14.00;96233.00;;;;5016264;28;20192;-64
2023/04/19 10:24:17;;;;;;;2.30;2.10;;;;;14.00;96232.00;;;;5033870;28;20237;-64
2023/04/19 10:27:11;;;;;;;2.77;2.57;;;;;14.00;96232.00;;;;5050085;28;20206;-64
2023/04/19 10:29:58;;;;;;;1.93;1.83;;;;;14.30;96222.00;;;;5053594;28;20300;-64
2023/04/19 10:32:28;;;;;;;2.53;2.03;;;;;14.40;96223.00;;;;5035745;28;20204;-64
2023/04/19 10:35:00;;;;;;;2.30;2.20;;;;;14.60;96235.00;;;;5053516;28;20204;-64
2023/04/19 10:37:28;;;;;;;1.20;1.20;;;;;14.50;96232.00;;;;5053554;28;20606;-66
2023/04/19 10:39:55;;;;;;;1.80;1.70;;;;;14.60;96232.00;;;;5053705;28;20556;-63
2023/04/19 10:42:24;;;;;;;2.77;2.57;;;;;14.40;96232.00;;;;5035609;28;20664;-65
2023/04/19 10:45:34;;;;;;;2.07;1.87;;;;;14.10;96232.00;;;;5053416;28;20283;-64
2023/04/19 10:48:04;;;;;;;2.23;2.13;;;;;13.90;96222.00;;;;5053155;28;20655;-66
2023/04/19 10:50:46;;;;;;;16.53;2.23;;;;;13.70;96229.00;;;;5053248;28;20212;-62
2023/04/19 10:53:45;;;;;;;1.47;1.47;;;;;13.30;96217.00;;;;5011996;28;20201;-62
2023/04/19 10:56:13;;;;;;;1.97;1.87;;;;;13.30;96215.00;;;;5033562;28;20212;-62
2023/04/19 10:59:22;;;;;;;1.20;1.20;;;;;13.10;96214.00;;;;5033056;28;20311;-62
2023/04/19 11:01:54;;;;;;;1.83;1.73;;;;;13.30;96203.00;;;;5033207;28;20264;-62
2023/04/19 11:04:26;;;;;;;2.03;1.93;;;;;13.30;96204.00;;;;5032897;28;20196;-62
2023/04/19 11:07:00;;;;;;;1.30;1.30;;;;;13.10;96201.00;;;;5032893;28;20263;-62
2023/04/19 11:09:30;;;;;;;1.33;1.33;;;;;13.10;96197.00;;;;5032900;28;20267;-66
2023/04/19 11:12:00;;;;;;;1.57;1.47;;;;;13.20;96207.00;;;;5033058;28;20196;-65
2023/04/19 11:14:32;;;;;;;5.70;3.13;;;;;13.20;96200.00;;;;5037431;28;20273;-64
2023/04/19 11:17:00;;;;;;;1.97;1.87;;;;;12.70;96192.00;;;;5027872;28;20213;-64
2023/04/19 11:19:27;;;;;;;2.63;2.40;;;;;12.50;96195.00;;;;5032256;28;20193;-65
2023/04/19 11:21:59;;;;;;;2.30;1.87;;;;;12.70;96189.00;;;;5032989;28;20203;-64
2023/04/19 11:24:27;;;;;;;5.60;2.73;;;;;12.70;96177.00;;;;5015230;28;20193;-64
2023/04/19 11:26:57;;;;;;;2.37;1.97;;;;;12.80;96185.00;;;;5032835;28;20232;-65
2023/04/19 11:29:25;;;;;;;1.70;1.60;;;;;12.80;96185.00;;;;5033052;28;20220;-65
2023/04/19 11:31:53;;;;;;;1.83;1.73;;;;;12.70;96181.00;;;;5032699;28;20215;-65
2023/04/19 11:34:23;;;;;;;1.57;1.47;;;;;12.70;96180.00;;;;5032720;28;20263;-64
2023/04/19 11:36:52;;;;;;;1.80;1.70;;;;;12.60;96187.00;;;;5032866;28;20696;-64
2023/04/19 11:39:20;;;;;;;2.73;2.27;;;;;12.40;96189.00;;;;5032548;28;20193;-65
2023/04/19 11:41:47;;;;;;;2.00;1.90;;;;;12.50;96182.00;;;;5032478;28;20196;-64
2023/04/19 11:44:16;;;;;;;3.73;1.77;;;;;12.50;96179.00;;;;5032297;28;20663;-65
2023/04/19 11:46:57;;;;;;;1.60;1.50;;;;;12.40;96173.00;;;;5032380;28;20246;-65
2023/04/19 11:49:28;;;;;;;1.87;1.77;;;;;12.40;96174.00;;;;5014596;28;20209;-65
2023/04/19 11:51:58;;;;;;;2.70;2.50;;;;;12.40;96172.00;;;;5032511;28;20192;-65
2023/04/19 11:54:26;;;;;;;1.47;1.37;;;;;12.20;96175.00;;;;5031721;28;20597;-65
2023/04/19 11:57:02;;;;;;;2.37;2.17;;;;;12.20;96176.00;;;;5032539;28;20259;-65
2023/04/19 11:59:31;;;;;;;1.70;1.60;;;;;12.20;96183.00;;;;5032158;28;20188;-64
2023/04/19 12:02:06;;;;;;;2.47;2.27;;;;;12.10;96167.00;;;;5032132;28;20200;-65
2023/04/19 12:04:35;;;;;;;1.50;1.40;;;;;11.90;96170.00;;;;5032114;28;20188;-64
2023/04/19 12:07:04;;;;;;;1.30;1.20;;;;;11.90;96174.00;;;;5032003;28;20224;-64
2023/04/19 12:09:35;;;;;;;2.20;2.10;;;;;11.80;96169.00;;;;5032222;28;20224;-64
2023/04/19 12:12:03;;;;;;;1.83;1.73;;;;;11.70;96170.00;;;;5031650;28;20197;-64
2023/04/19 12:14:31;;;;;;;1.13;1.13;;;;;11.60;96164.00;;;;5031994;28;20201;-65
2023/04/19 12:17:09;;;;;;;2.30;2.17;;;;;11.40;96168.00;;;;5031877;28;20208;-64
2023/04/19 12:19:42;;;;;;;2.20;2.00;;;;;11.20;96164.00;;;;5014361;28;20271;-64
2023/04/19 12:22:14;;;;;;;2.17;1.77;;;;;11.10;96171.00;;;;5028224;28;20196;-65
2023/04/19 12:24:42;;;;;;;1.90;1.80;;;;;11.00;96174.00;;;;5032021;28;20556;-65
2023/04/19 12:27:11;;;;;;;2.10;2.00;;;;;10.90;96164.00;;;;5042935;28;20211;-65
2023/04/19 12:29:39;;;;;;;2.37;2.17;;;;;10.80;96171.00;;;;5040334;28;20699;-65
2023/04/19 12:32:07;;;;;;;3.43;1.97;;;;;10.80;96165.00;;;;5031221;28;20224;-65